Time;durP1;ratioP1;P1;durP2;ratioP2;P2;SDS_P1;SDS_P2;PMS_P1;PMS_P2;Temp;Humidity;BMP_temperature;BMP_pressure;BME280_temperature;BME280_humidity;BME280_pressure;Samples;Min_cycle;Max_cycle;Signal;HPM_P1;HPM_P2
2022/10/27 00:00:35;;;;;;;;;2.00;2.00;;;;;16.80;100.00;101504.03;4942286;28;45437;-76
2022/10/27 00:03:01;;;;;;;;;3.00;3.00;;;;;16.83;100.00;101505.50;4942039;28;45460;-75
2022/10/27 00:05:27;;;;;;;;;3.33;3.33;;;;;16.78;100.00;101506.09;4942675;28;45505;-76
2022/10/27 00:07:53;;;;;;;;;2.33;2.33;;;;;16.75;100.00;101501.09;4942079;28;45531;-76
2022/10/27 00:10:18;;;;;;;;;2.00;2.00;;;;;16.73;100.00;101503.97;4942222;28;45452;-76
2022/10/27 00:12:43;;;;;;;;;3.33;3.33;;;;;16.65;100.00;101491.53;4942221;28;45433;-76
2022/10/27 00:15:10;;;;;;;;;3.33;3.33;;;;;16.63;100.00;101479.34;4941955;28;45251;-76
2022/10/27 00:17:36;;;;;;;;;3.00;3.00;;;;;16.64;100.00;101489.91;4942042;28;45165;-76
2022/10/27 00:20:02;;;;;;;;;2.00;2.00;;;;;16.57;100.00;101470.25;4940785;28;45255;-76
2022/10/27 00:22:27;;;;;;;;;3.00;3.00;;;;;16.58;100.00;101479.13;4941968;28;45298;-76
2022/10/27 00:24:52;;;;;;;;;2.00;2.00;;;;;16.61;100.00;101476.88;4940314;28;48184;-76
2022/10/27 00:27:18;;;;;;;;;3.00;3.00;;;;;16.59;100.00;101489.66;4941248;28;53670;-76
2022/10/27 00:29:43;;;;;;;;;3.00;2.00;;;;;16.52;100.00;101480.72;4941629;28;45292;-75
2022/10/27 00:32:09;;;;;;;;;4.00;2.00;;;;;16.59;100.00;101488.84;4941790;28;45493;-77
2022/10/27 00:34:34;;;;;;;;;2.67;2.67;;;;;16.49;100.00;101481.16;4956311;28;46849;-75
2022/10/27 00:36:59;;;;;;;;;3.00;3.00;;;;;16.54;100.00;101497.47;4941490;28;48223;-76
2022/10/27 00:39:25;;;;;;;;;2.67;2.00;;;;;16.46;100.00;101487.72;4940767;28;45300;-75
2022/10/27 00:41:50;;;;;;;;;1.00;1.00;;;;;16.47;100.00;101483.19;4941421;28;49035;-76
2022/10/27 00:44:44;;;;;;;;;2.33;2.33;;;;;16.50;100.00;101496.22;4941479;28;45470;-76
2022/10/27 00:47:15;;;;;;;;;3.00;3.00;;;;;16.50;100.00;101494.38;4941672;28;45321;-75
2022/10/27 00:49:43;;;;;;;;;3.33;1.67;;;;;16.50;100.00;101505.09;4941664;28;45255;-75
2022/10/27 00:52:17;;;;;;;;;2.00;2.00;;;;;16.44;100.00;101496.97;4940071;28;46510;-75
2022/10/27 00:54:42;;;;;;;;;2.00;2.00;;;;;16.41;100.00;101482.91;4941442;28;45253;-76
2022/10/27 00:57:10;;;;;;;;;1.67;1.67;;;;;16.48;100.00;101499.09;4939946;28;45704;-75
2022/10/27 00:59:37;;;;;;;;;2.33;2.33;;;;;16.45;100.00;101499.47;4956436;28;45380;-76
2022/10/27 01:02:05;;;;;;;;;3.00;3.00;;;;;16.40;100.00;101491.16;4939904;28;47322;-76
2022/10/27 01:04:48;;;;;;;;;3.00;3.00;;;;;16.35;100.00;101496.31;4941194;28;45299;-76
2022/10/27 01:07:16;;;;;;;;;1.00;1.00;;;;;16.31;100.00;101478.94;4941438;28;45319;-77
2022/10/27 01:09:42;;;;;;;;;4.00;3.00;;;;;16.32;100.00;101492.16;4941171;28;45239;-75
2022/10/27 01:12:08;;;;;;;;;1.67;1.67;;;;;16.33;100.00;101482.25;4941094;28;45325;-76
2022/10/27 01:14:33;;;;;;;;;6.00;5.00;;;;;16.31;100.00;101484.31;4941213;28;46008;-75
2022/10/27 01:17:31;;;;;;;;;1.67;1.67;;;;;16.27;100.00;101478.50;4941016;28;45326;-75
2022/10/27 01:20:31;;;;;;;;;3.00;3.00;;;;;16.30;100.00;101479.94;4941465;28;45313;-76
2022/10/27 01:23:25;;;;;;;;;3.00;2.33;;;;;16.28;100.00;101480.97;4941016;28;45202;-75
2022/10/27 01:26:18;;;;;;;;;4.00;4.00;;;;;16.28;100.00;101480.13;4925267;28;45573;-76
2022/10/27 01:29:27;;;;;;;;;3.00;3.00;;;;;16.26;100.00;101474.16;4955963;28;45341;-75
2022/10/27 01:32:26;;;;;;;;;2.67;2.67;;;;;16.19;100.00;101462.56;4941169;28;45271;-75
2022/10/27 01:35:19;;;;;;;;;3.67;3.67;;;;;16.20;100.00;101469.56;4955590;28;46252;-75
2022/10/27 01:37:59;;;;;;;;;2.33;2.33;;;;;16.18;100.00;101474.28;4955518;28;47056;-76
2022/10/27 01:40:34;;;;;;;;;4.00;4.00;;;;;16.10;100.00;101473.41;4955425;28;45314;-75
2022/10/27 01:43:05;;;;;;;;;3.00;3.00;;;;;16.12;100.00;101474.06;4942833;28;45172;-75
2022/10/27 01:45:36;;;;;;;;;3.00;3.00;;;;;16.10;100.00;101470.72;4944082;28;45407;-75
2022/10/27 01:48:05;;;;;;;;;2.67;2.33;;;;;16.13;100.00;101472.19;4944415;28;45613;-76
2022/10/27 01:50:36;;;;;;;;;2.33;2.00;;;;;16.06;100.00;101464.09;4942878;28;45393;-76
2022/10/27 01:53:01;;;;;;;;;2.00;2.00;;;;;16.06;100.00;101476.66;4959015;28;45199;-75
2022/10/27 01:55:39;;;;;;;;;2.67;2.67;;;;;16.07;100.00;101468.41;4942369;28;50032;-75
2022/10/27 01:58:19;;;;;;;;;2.33;1.67;;;;;16.10;100.00;101475.28;4958916;28;48455;-75
2022/10/27 02:01:10;;;;;;;;;4.00;4.00;;;;;16.08;100.00;101461.22;4943935;28;45231;-76
2022/10/27 02:03:54;;;;;;;;;1.67;1.67;;;;;16.08;100.00;101459.38;4944131;28;45397;-76
2022/10/27 02:06:33;;;;;;;;;1.00;1.00;;;;;16.07;100.00;101457.69;4942595;28;46413;-76
2022/10/27 02:09:23;;;;;;;;;2.00;2.00;;;;;16.03;100.00;101456.44;4943459;28;46296;-75
2022/10/27 02:11:52;;;;;;;;;4.00;2.67;;;;;15.96;100.00;101444.81;4943613;28;45351;-75
2022/10/27 02:14:19;;;;;;;;;3.00;3.00;;;;;15.88;100.00;101432.34;4944085;28;45369;-75
2022/10/27 02:16:49;;;;;;;;;1.67;1.67;;;;;15.97;100.00;101447.31;4958390;28;45523;-76
2022/10/27 02:19:26;;;;;;;;;3.33;2.00;;;;;15.97;100.00;101451.84;4943663;28;45280;-75
2022/10/27 02:21:56;;;;;;;;;1.00;1.00;;;;;15.94;100.00;101441.47;4943644;28;45382;-75
2022/10/27 02:24:23;;;;;;;;;3.33;2.67;;;;;15.93;100.00;101435.31;4943788;28;45205;-76
2022/10/27 02:26:51;;;;;;;;;3.00;3.00;;;;;16.01;100.00;101445.06;4958210;28;45999;-76
2022/10/27 02:29:27;;;;;;;;;2.00;2.00;;;;;16.01;100.00;101443.22;4958294;28;45984;-75
2022/10/27 02:31:58;;;;;;;;;1.00;1.00;;;;;16.01;100.00;101440.53;4942127;28;45362;-76
2022/10/27 02:34:25;;;;;;;;;3.00;1.67;;;;;16.01;100.00;101437.84;4943711;28;45435;-76
2022/10/27 02:36:50;;;;;;;;;2.00;2.00;;;;;15.99;100.00;101429.19;4958242;28;45965;-75
2022/10/27 02:39:16;;;;;;;;;1.00;1.00;;;;;15.97;100.00;101425.03;4941857;28;47381;-76
2022/10/27 02:41:41;;;;;;;;;2.33;2.33;;;;;16.06;100.00;101431.06;4943273;28;45347;-75
2022/10/27 02:44:06;;;;;;;;;2.00;2.00;;;;;16.03;100.00;101429.63;4943313;28;45377;-76
2022/10/27 02:46:31;;;;;;;;;1.67;1.67;;;;;15.90;100.00;101419.59;4943629;28;45520;-76
2022/10/27 02:48:57;;;;;;;;;1.00;1.00;;;;;15.96;100.00;101434.06;4957968;28;48596;-76
2022/10/27 02:51:22;;;;;;;;;3.33;3.33;;;;;15.89;100.00;101418.75;4943337;28;45361;-76
2022/10/27 02:53:47;;;;;;;;;2.50;2.50;;;;;15.93;100.00;101429.09;4941780;28;46265;-77
2022/10/27 02:56:13;;;;;;;;;3.00;2.00;;;;;15.94;100.00;101426.22;4943236;28;45507;-76
2022/10/27 02:58:41;;;;;;;;;1.00;1.00;;;;;15.96;100.00;101420.69;4941868;28;47568;-76
2022/10/27 03:01:06;;;;;;;;;1.67;1.67;;;;;15.98;100.00;101422.16;4943117;28;45321;-76
2022/10/27 03:03:32;;;;;;;;;2.00;2.00;;;;;15.93;100.00;101415.69;4943176;28;45243;-75
2022/10/27 03:05:57;;;;;;;;;3.33;2.00;;;;;15.90;100.00;101408.88;4957938;28;47015;-75
2022/10/27 03:08:22;;;;;;;;;3.00;3.00;;;;;15.94;100.00;101415.50;4957507;28;46879;-76
2022/10/27 03:10:48;;;;;;;;;3.00;2.00;;;;;16.00;100.00;101416.59;4941988;28;45292;-76
2022/10/27 03:13:13;;;;;;;;;2.00;2.00;;;;;16.01;100.00;101418.25;4941725;28;45164;-76
2022/10/27 03:15:39;;;;;;;;;4.67;3.00;;;;;15.98;100.00;101421.34;4943066;28;45219;-75
2022/10/27 03:18:04;;;;;;;;;3.00;3.00;;;;;15.92;100.00;101417.53;4957381;28;50370;-76
2022/10/27 03:20:29;;;;;;;;;2.00;2.00;;;;;15.95;100.00;101408.31;4941531;28;45343;-75
2022/10/27 03:22:55;;;;;;;;;2.00;2.00;;;;;15.90;100.00;101406.19;4942867;28;45424;-75
2022/10/27 03:25:20;;;;;;;;;1.00;1.00;;;;;15.92;100.00;101412.19;4942445;28;45310;-76
2022/10/27 03:27:45;;;;;;;;;2.00;2.00;;;;;15.90;100.00;101414.25;4941257;28;47154;-75
2022/10/27 03:30:13;;;;;;;;;1.67;1.67;;;;;15.95;100.00;101419.84;4942725;28;45369;-76
2022/10/27 03:32:39;;;;;;;;;2.00;2.00;;;;;15.88;100.00;101411.75;4941438;28;45256;-75
2022/10/27 03:35:05;;;;;;;;;2.00;2.00;;;;;15.92;100.00;101406.00;4957415;28;45338;-75
2022/10/27 03:37:30;;;;;;;;;0.33;0.33;;;;;15.92;100.00;101411.38;4942670;28;45298;-76
2022/10/27 03:39:56;;;;;;;;;2.33;2.33;;;;;15.87;100.00;101410.06;4957252;28;45247;-76
2022/10/27 03:42:21;;;;;;;;;4.00;3.00;;;;;15.95;100.00;101411.78;4943084;28;45297;-75
2022/10/27 03:44:46;;;;;;;;;1.00;1.00;;;;;15.98;100.00;101408.75;4942274;28;45555;-75
2022/10/27 03:47:12;;;;;;;;;2.67;1.67;;;;;15.97;100.00;101406.28;4942446;28;45326;-76
2022/10/27 03:49:37;;;;;;;;;2.33;2.33;;;;;15.95;100.00;101417.16;4942480;28;45284;-76
2022/10/27 03:52:02;;;;;;;;;3.00;2.33;;;;;16.01;100.00;101418.25;4957154;28;45333;-76
2022/10/27 03:54:29;;;;;;;;;2.00;2.00;;;;;15.91;100.00;101418.56;4942478;28;45295;-75
2022/10/27 03:56:55;;;;;;;;;2.00;2.00;;;;;15.94;100.00;101420.88;4940639;28;47303;-75
2022/10/27 03:59:20;;;;;;;;;3.00;1.33;;;;;15.95;100.00;101425.19;4940923;28;45298;-75
2022/10/27 04:01:46;;;;;;;;;2.67;2.67;;;;;15.90;100.00;101425.78;4942183;28;45353;-75
2022/10/27 04:04:11;;;;;;;;;1.00;0.00;;;;;15.97;100.00;101435.75;4942043;28;45448;-75
2022/10/27 04:06:37;;;;;;;;;2.67;2.00;;;;;15.88;100.00;101432.34;4941561;28;46197;-76
2022/10/27 04:09:02;;;;;;;;;1.67;1.67;;;;;15.92;100.00;101438.97;4941811;28;45373;-75
2022/10/27 04:11:27;;;;;;;;;2.00;2.00;;;;;15.87;100.00;101430.69;4941013;28;45470;-76
2022/10/27 04:13:53;;;;;;;;;2.00;2.00;;;;;15.84;100.00;101431.09;4940835;28;46022;-77
2022/10/27 04:16:18;;;;;;;;;1.67;1.00;;;;;15.76;100.00;101426.69;4941925;28;46116;-75
2022/10/27 04:18:43;;;;;;;;;3.00;2.00;;;;;15.73;100.00;101430.59;4942084;28;45409;-76
2022/10/27 04:21:09;;;;;;;;;3.00;2.00;;;;;15.77;100.00;101439.06;4942034;28;45275;-75
2022/10/27 04:23:34;;;;;;;;;3.33;2.67;;;;;15.80;100.00;101437.84;4941760;28;45469;-76
2022/10/27 04:26:00;;;;;;;;;1.00;1.00;;;;;15.73;100.00;101429.75;4941661;28;46055;-75
2022/10/27 04:28:25;;;;;;;;;2.00;2.00;;;;;15.77;100.00;101431.00;4941848;28;45470;-75
2022/10/27 04:30:50;;;;;;;;;4.00;2.67;;;;;15.74;100.00;101418.84;4942041;28;45197;-75
2022/10/27 04:33:16;;;;;;;;;3.00;3.00;;;;;15.70;100.00;101412.22;4941875;28;45262;-76
2022/10/27 04:35:41;;;;;;;;;1.33;1.33;;;;;15.71;100.00;101424.56;4941864;28;46324;-76
2022/10/27 04:38:07;;;;;;;;;1.00;1.00;;;;;15.71;100.00;101411.19;4941737;28;45235;-76
2022/10/27 04:40:32;;;;;;;;;1.00;1.00;;;;;15.71;100.00;101419.22;4941658;28;45242;-76
2022/10/27 04:42:58;;;;;;;;;2.00;0.67;;;;;15.69;100.00;101423.97;4940279;28;46220;-75
2022/10/27 04:45:23;;;;;;;;;2.33;2.33;;;;;15.75;100.00;101433.88;4941507;28;45257;-76
2022/10/27 04:47:48;;;;;;;;;3.33;3.33;;;;;15.72;100.00;101426.25;4940262;28;45227;-75
2022/10/27 04:50:15;;;;;;;;;3.33;2.33;;;;;15.74;100.00;101428.72;4940480;28;45239;-75
2022/10/27 04:52:40;;;;;;;;;2.67;2.00;;;;;15.75;100.00;101417.00;4941342;28;45309;-75
2022/10/27 04:55:07;;;;;;;;;3.33;3.33;;;;;15.69;100.00;101407.03;4941151;28;46198;-77
2022/10/27 04:57:33;;;;;;;;;2.67;1.67;;;;;15.73;100.00;101414.50;4941490;28;45348;-76
2022/10/27 04:59:58;;;;;;;;;2.00;2.00;;;;;15.71;100.00;101424.56;4941575;28;45440;-76
2022/10/27 05:02:24;;;;;;;;;3.00;1.00;;;;;15.68;100.00;101410.75;4955910;28;49374;-76
2022/10/27 05:04:49;;;;;;;;;2.00;2.00;;;;;15.73;100.00;101419.03;4941232;28;45243;-76
2022/10/27 05:07:14;;;;;;;;;2.00;2.00;;;;;15.62;100.00;101397.09;4939788;28;45251;-76
2022/10/27 05:09:40;;;;;;;;;2.67;2.67;;;;;15.70;100.00;101401.50;4941167;28;45262;-75
2022/10/27 05:12:05;;;;;;;;;3.00;2.00;;;;;15.66;100.00;101405.59;4939726;28;47094;-76
2022/10/27 05:14:30;;;;;;;;;2.00;2.00;;;;;15.72;100.00;101412.84;4941242;28;45806;-76
2022/10/27 05:16:56;;;;;;;;;1.00;1.00;;;;;15.67;100.00;101395.69;4957115;28;45719;-76
2022/10/27 05:19:21;;;;;;;;;2.00;2.00;;;;;15.62;100.00;101388.22;4935036;28;52520;-75
2022/10/27 05:21:46;;;;;;;;;5.00;2.33;;;;;15.65;100.00;101393.19;4944709;28;45482;-77
2022/10/27 05:24:12;;;;;;;;;2.33;2.33;;;;;15.67;100.00;101391.16;4944497;28;47038;-76
2022/10/27 05:26:37;;;;;;;;;2.33;2.33;;;;;15.71;100.00;101396.97;4945174;28;45326;-75
2022/10/27 05:29:02;;;;;;;;;4.33;2.67;;;;;15.65;100.00;101390.50;4944932;28;45251;-75
2022/10/27 05:31:28;;;;;;;;;5.00;3.00;;;;;15.67;100.00;101393.00;4951370;28;45294;-77
2022/10/27 05:33:53;;;;;;;;;3.00;3.00;;;;;15.73;100.00;101403.78;4973574;28;47405;-77
2022/10/27 05:36:19;;;;;;;;;4.00;3.33;;;;;15.75;100.00;101404.41;4944506;28;45255;-77
2022/10/27 05:38:47;;;;;;;;;3.00;2.00;;;;;15.68;100.00;101395.47;4944361;28;45568;-76
2022/10/27 05:41:12;;;;;;;;;5.00;4.00;;;;;15.65;100.00;101387.81;4944073;28;45302;-76
2022/10/27 05:43:38;;;;;;;;;4.00;4.00;;;;;15.67;100.00;101391.16;4944346;28;46224;-75
2022/10/27 05:46:04;;;;;;;;;3.67;3.00;;;;;15.71;100.00;101395.09;4942845;28;45605;-76
2022/10/27 05:48:30;;;;;;;;;3.00;3.00;;;;;15.72;100.00;101390.56;4944430;28;45231;-76
2022/10/27 05:50:55;;;;;;;;;3.33;2.00;;;;;15.69;100.00;101389.13;4945056;28;45210;-75
2022/10/27 05:53:21;;;;;;;;;4.00;3.00;;;;;15.75;100.00;101400.91;4943240;28;45674;-78
2022/10/27 05:55:47;;;;;;;;;3.00;3.00;;;;;15.74;100.00;101402.75;4944515;28;45301;-75
2022/10/27 05:58:12;;;;;;;;;2.00;2.00;;;;;15.68;100.00;101395.47;4943512;28;45235;-76
2022/10/27 06:00:38;;;;;;;;;4.00;4.00;;;;;15.72;100.00;101402.13;4946612;28;45327;-75
2022/10/27 06:03:06;;;;;;;;;3.00;3.00;;;;;15.73;100.00;101400.25;4946127;28;45306;-75
2022/10/27 06:05:35;;;;;;;;;4.00;3.33;;;;;15.69;100.00;101389.13;4944296;28;45313;-77
2022/10/27 06:08:00;;;;;;;;;2.00;2.00;;;;;15.62;100.00;101370.28;4943999;28;45287;-76
2022/10/27 06:10:28;;;;;;;;;2.00;2.00;;;;;15.73;100.00;101386.88;4942300;28;47393;-76
2022/10/27 06:13:00;;;;;;;;;3.67;3.67;;;;;15.72;100.00;101380.69;4943841;28;45214;-76
2022/10/27 06:15:25;;;;;;;;;2.00;2.00;;;;;15.70;100.00;101368.50;4943909;28;45377;-76
2022/10/27 06:17:52;;;;;;;;;5.33;5.33;;;;;15.75;100.00;101374.13;4942095;28;53570;-76
2022/10/27 06:20:17;;;;;;;;;2.33;2.33;;;;;15.78;100.00;101374.53;4943345;28;46365;-77
2022/10/27 06:22:45;;;;;;;;;5.33;4.00;;;;;15.80;100.00;101376.22;4942754;28;46278;-76
2022/10/27 06:25:10;;;;;;;;;4.00;2.67;;;;;15.77;100.00;101367.53;4942669;28;45480;-75
2022/10/27 06:27:35;;;;;;;;;3.00;3.00;;;;;15.85;100.00;101376.44;4943232;28;45498;-74
2022/10/27 06:30:01;;;;;;;;;2.67;2.67;;;;;15.83;100.00;101370.47;4941444;28;47141;-76
2022/10/27 06:32:26;;;;;;;;;0.67;0.67;;;;;15.92;100.00;101387.25;4942374;28;45430;-76
2022/10/27 06:34:51;;;;;;;;;6.00;3.67;;;;;15.90;100.00;101382.88;4957601;28;45486;-76
2022/10/27 06:37:17;;;;;;;;;4.00;4.00;;;;;15.95;100.00;101384.97;4943248;28;45489;-76
2022/10/27 06:39:42;;;;;;;;;3.67;3.00;;;;;16.05;100.00;101389.22;4943279;28;45468;-75
2022/10/27 06:42:07;;;;;;;;;4.00;4.00;;;;;16.03;100.00;101378.69;4943241;28;46024;-75
2022/10/27 06:44:32;;;;;;;;;3.00;2.67;;;;;16.14;100.00;101378.13;4943547;28;46346;-76
2022/10/27 06:46:58;;;;;;;;;2.67;2.67;;;;;16.18;100.00;101375.91;4955862;28;45271;-75
2022/10/27 06:49:23;;;;;;;;;6.33;2.67;;;;;16.21;100.00;101367.47;4942738;28;45238;-75
2022/10/27 06:51:48;;;;;;;;;4.67;4.67;;;;;16.30;100.00;101376.19;4940874;28;50834;-75
2022/10/27 06:54:14;;;;;;;;;5.67;5.67;;;;;16.23;100.00;101340.47;4957761;28;51520;-75
2022/10/27 06:56:39;;;;;;;;;3.67;3.33;;;;;16.32;100.00;101362.56;4943186;28;45471;-75
2022/10/27 06:59:04;;;;;;;;;4.00;4.00;;;;;16.35;100.00;101357.66;4941659;28;46203;-75
2022/10/27 07:01:30;;;;;;;;;3.33;3.33;;;;;16.40;100.00;101365.09;4942769;28;50324;-75
2022/10/27 07:03:56;;;;;;;;;6.00;5.00;;;;;16.44;100.00;101357.47;4943147;28;45311;-75
2022/10/27 07:06:21;;;;;;;;;5.67;5.00;;;;;16.48;100.00;101356.06;4943143;28;45371;-75
2022/10/27 07:08:47;;;;;;;;;5.67;5.00;;;;;16.57;100.00;101370.13;4942925;28;45449;-75
2022/10/27 07:11:12;;;;;;;;;3.33;3.33;;;;;16.59;100.00;101368.91;4942767;28;45913;-75
2022/10/27 07:13:37;;;;;;;;;5.33;5.33;;;;;16.55;100.00;101359.59;4941658;28;45287;-75
2022/10/27 07:16:03;;;;;;;;;7.00;7.00;;;;;16.61;100.00;101360.66;4943176;28;45223;-77
2022/10/27 07:18:28;;;;;;;;;5.00;5.00;;;;;16.56;100.00;101361.28;4942530;28;45475;-75
2022/10/27 07:20:54;;;;;;;;;5.33;4.33;;;;;16.61;100.00;101366.03;4942861;28;45972;-75
2022/10/27 07:23:19;;;;;;;;;4.67;4.67;;;;;16.64;100.00;101374.50;4941733;28;45385;-75
2022/10/27 07:25:48;;;;;;;;;5.67;5.67;;;;;16.66;100.00;101387.72;4941974;28;45355;-75
2022/10/27 07:28:14;;;;;;;;;8.00;6.67;;;;;16.68;100.00;101380.31;4941817;28;47105;-75
2022/10/27 07:30:43;;;;;;;;;5.67;4.67;;;;;16.69;100.00;101371.22;4941733;28;47080;-76
2022/10/27 07:33:11;;;;;;;;;4.00;4.00;;;;;16.72;100.00;101381.56;4940940;28;45405;-75
2022/10/27 07:35:37;;;;;;;;;6.33;6.00;;;;;16.78;100.00;101388.81;4943653;28;45369;-75
2022/10/27 07:38:02;;;;;;;;;5.00;4.00;;;;;16.83;100.00;101395.44;4936408;28;45276;-74
2022/10/27 07:40:28;;;;;;;;;8.00;5.67;;;;;16.85;100.00;101390.72;4939558;28;45480;-74
2022/10/27 07:42:58;;;;;;;;;7.00;6.00;;;;;16.87;100.00;101389.47;4940701;28;45236;-73
2022/10/27 07:45:25;;;;;;;;;3.67;3.67;;;;;16.86;100.00;101385.13;4935282;28;45193;-73
2022/10/27 07:47:53;;;;;;;;;4.00;4.00;;;;;16.89;100.00;101386.59;4941532;28;45393;-74
2022/10/27 07:50:21;;;;;;;;;5.00;4.00;;;;;16.94;100.00;101389.47;4941656;28;45665;-73
2022/10/27 07:52:48;;;;;;;;;7.00;7.00;;;;;16.97;100.00;101390.97;4941891;28;45171;-73
2022/10/27 07:55:15;;;;;;;;;7.00;6.00;;;;;17.04;100.00;101402.53;4940051;28;45433;-73
2022/10/27 07:57:42;;;;;;;;;5.00;5.00;;;;;17.11;100.00;101411.47;4940900;28;45746;-73
2022/10/27 08:00:13;;;;;;;;;5.00;5.00;;;;;17.19;100.00;101423.06;4942016;28;46174;-74
2022/10/27 08:02:39;;;;;;;;;7.00;7.00;;;;;17.25;100.00;101423.09;4942304;28;45345;-73
2022/10/27 08:05:05;;;;;;;;;7.00;7.00;;;;;17.28;100.00;101437.97;4936220;28;45376;-75
2022/10/27 08:07:30;;;;;;;;;6.33;5.33;;;;;17.35;100.00;101451.41;4941064;28;45432;-72
2022/10/27 08:09:55;;;;;;;;;5.67;5.67;;;;;17.44;100.00;101458.25;4940815;28;45286;-73
2022/10/27 08:12:21;;;;;;;;;6.33;6.00;;;;;17.55;100.00;101440.72;4934146;28;45408;-73
2022/10/27 08:14:46;;;;;;;;;5.67;5.33;;;;;17.66;100.00;101433.94;4941267;28;45555;-73
2022/10/27 08:17:14;;;;;;;;;6.33;6.00;;;;;17.78;100.00;101434.97;4942171;28;45592;-74
2022/10/27 08:19:40;;;;;;;;;5.00;5.00;;;;;17.83;100.00;101434.34;4940948;28;46201;-75
2022/10/27 08:22:05;;;;;;;;;6.33;6.33;;;;;17.94;100.00;101434.75;4941804;28;45271;-74
2022/10/27 08:24:30;;;;;;;;;6.67;6.67;;;;;17.99;100.00;101432.28;4941835;28;45574;-75
2022/10/27 08:26:56;;;;;;;;;14.33;12.33;;;;;18.11;100.00;101435.22;4942896;28;45343;-74
2022/10/27 08:29:22;;;;;;;;;8.00;8.00;;;;;18.15;100.00;101426.53;4942682;28;46075;-75
2022/10/27 08:31:47;;;;;;;;;7.00;6.00;;;;;18.19;100.00;101434.19;4943874;28;45548;-74
2022/10/27 08:34:12;;;;;;;;;9.00;6.33;;;;;18.21;100.00;101435.63;4941544;28;45391;-76
2022/10/27 08:36:38;;;;;;;;;7.00;5.33;;;;;18.23;100.00;101435.41;4941378;28;45496;-75
2022/10/27 08:39:10;;;;;;;;;7.00;6.00;;;;;18.26;100.00;101441.19;4940060;28;47096;-74
2022/10/27 08:41:50;;;;;;;;;5.33;5.00;;;;;18.29;100.00;101445.34;4939340;28;46473;-75
2022/10/27 08:44:36;;;;;;;;;6.67;6.67;;;;;18.28;100.00;101439.13;4939505;28;45555;-73
2022/10/27 08:47:04;;;;;;;;;7.33;6.67;;;;;18.32;100.00;101449.47;4928387;28;45633;-74
2022/10/27 08:49:44;;;;;;;;;7.67;6.67;;;;;18.35;100.00;101449.06;4943599;28;45489;-74
2022/10/27 08:52:21;;;;;;;;;6.33;5.67;;;;;18.35;100.00;101449.06;4947142;28;45373;-75
2022/10/27 08:54:57;;;;;;;;;7.67;6.00;;;;;18.40;100.00;101443.84;4945813;28;45365;-75
2022/10/27 08:57:26;;;;;;;;;6.67;6.00;;;;;18.40;100.00;101435.78;4961665;28;46172;-75
2022/10/27 08:59:53;;;;;;;;;7.00;7.00;;;;;18.49;100.00;101436.38;4945267;28;46169;-76
2022/10/27 09:02:57;;;;;;;;;6.67;6.67;;;;;18.53;100.00;101441.13;4941715;28;45262;-75
2022/10/27 09:05:35;;;;;;;;;5.33;5.33;;;;;18.59;100.00;101444.03;4939905;28;45376;-76
2022/10/27 09:08:12;;;;;;;;;7.67;7.67;;;;;18.64;100.00;101436.13;4943179;28;45259;-76
2022/10/27 09:10:43;;;;;;;;;5.00;5.00;;;;;18.63;100.00;101439.88;4939162;28;45641;-75
2022/10/27 09:13:41;;;;;;;;;62.75;49.75;;;;;18.71;100.00;101436.97;4940630;28;45354;-75
2022/10/27 09:16:13;;;;;;;;;13.00;11.67;;;;;18.68;100.00;101426.63;4940194;28;45432;-75
2022/10/27 09:18:44;;;;;;;;;8.00;8.00;;;;;18.80;100.00;101432.19;4939290;28;46512;-76
2022/10/27 09:21:20;;;;;;;;;10.00;8.00;;;;;18.80;100.00;101426.78;4941066;28;45239;-74
2022/10/27 09:23:55;;;;;;;;;7.00;7.00;;;;;18.86;100.00;101433.19;4940794;28;45378;-75
2022/10/27 09:26:27;;;;;;;;;8.00;8.00;;;;;18.89;100.00;101448.91;4941099;28;45221;-75
2022/10/27 09:28:54;;;;;;;;;9.00;7.33;;;;;18.93;100.00;101458.22;4933286;28;46028;-75
2022/10/27 09:31:33;;;;;;;;;7.67;6.00;;;;;18.90;100.00;101440.63;4935258;28;45457;-75
2022/10/27 09:34:17;;;;;;;;;11.33;11.33;;;;;19.01;100.00;101452.56;4941358;28;45223;-76
2022/10/27 09:36:43;;;;;;;;;7.00;6.67;;;;;18.98;100.00;101450.34;4926889;28;45303;-75
2022/10/27 09:39:17;;;;;;;;;5.00;5.00;;;;;19.03;100.00;101458.59;4938130;28;45885;-78
2022/10/27 09:41:42;;;;;;;;;9.33;8.00;;;;;19.12;100.00;101469.13;4921013;28;46814;-76
2022/10/27 09:44:34;;;;;;;;;7.00;6.00;;;;;19.11;99.88;101454.88;4938722;28;45259;-76
2022/10/27 09:46:59;;;;;;;;;7.00;6.67;;;;;19.23;100.00;101467.66;4937463;28;45299;-75
2022/10/27 09:49:35;;;;;;;;;7.00;7.00;;;;;19.30;100.00;101468.44;4939616;28;45306;-76
2022/10/27 09:52:10;;;;;;;;;8.00;6.00;;;;;19.35;100.00;101468.63;4938648;28;47962;-77
2022/10/27 09:54:38;;;;;;;;;8.00;8.00;;;;;19.44;99.73;101469.19;4939241;28;45374;-77
2022/10/27 09:57:19;;;;;;;;;7.33;7.33;;;;;19.42;98.86;101460.50;4938366;28;45283;-78
2022/10/27 09:59:58;;;;;;;;;11.00;7.00;;;;;19.40;98.95;101433.75;4937404;28;45355;-77
2022/10/27 10:02:33;;;;;;;;;8.33;8.00;;;;;19.65;98.77;101469.91;4939964;28;46007;-77
2022/10/27 10:05:00;;;;;;;;;9.00;8.00;;;;;19.71;98.91;101460.94;4957943;28;45905;-76
2022/10/27 10:07:38;;;;;;;;;8.00;7.00;;;;;19.68;99.05;101445.19;4940662;28;45724;-75
2022/10/27 10:10:24;;;;;;;;;6.00;6.00;;;;;19.70;98.47;101436.91;4957386;28;45574;-77
2022/10/27 10:13:02;;;;;;;;;6.00;6.00;;;;;19.87;97.47;101456.88;4943005;28;45611;-78
2022/10/27 10:15:28;;;;;;;;;7.00;6.67;;;;;19.93;98.60;101460.56;4942295;28;45277;-78
2022/10/27 10:17:57;;;;;;;;;10.00;10.00;;;;;19.95;98.28;101455.78;4941183;28;45684;-78
2022/10/27 10:20:39;;;;;;;;;9.00;8.33;;;;;20.02;98.75;101470.06;4940950;28;46283;-77
2022/10/27 10:23:26;;;;;;;;;10.67;9.00;;;;;20.06;98.33;101455.09;4943382;28;46078;-79
2022/10/27 10:25:54;;;;;;;;;6.00;5.67;;;;;20.08;98.10;101449.47;4943312;28;45353;-79
2022/10/27 10:28:35;;;;;;;;;10.00;8.33;;;;;20.23;97.79;101459.13;4942341;28;45288;-77
2022/10/27 10:31:04;;;;;;;;;7.33;7.33;;;;;20.26;97.39;101456.78;4943449;28;45329;-77
2022/10/27 10:33:42;;;;;;;;;8.67;7.67;;;;;20.28;96.07;101453.88;4943480;28;45239;-75
2022/10/27 10:36:34;;;;;;;;;7.00;7.00;;;;;20.42;96.78;101447.28;4945918;28;44666;-77
2022/10/27 10:39:00;;;;;;;;;7.33;7.00;;;;;20.48;95.52;101451.00;4943858;28;45253;-79
2022/10/27 10:41:29;;;;;;;;;7.67;7.67;;;;;20.49;96.41;101441.00;4943174;28;45282;-80
2022/10/27 10:44:14;;;;;;;;;8.00;7.00;;;;;20.66;95.30;101449.34;4941935;28;47556;-78
2022/10/27 10:47:01;;;;;;;;;7.00;7.00;;;;;20.70;95.03;101445.13;4943216;28;45535;-76
2022/10/27 10:49:33;;;;;;;;;8.00;6.67;;;;;20.81;95.15;101455.16;4962342;28;45384;-77
2022/10/27 10:52:04;;;;;;;;;9.33;8.00;;;;;20.92;94.40;101463.63;4962113;28;45472;-77
2022/10/27 10:54:40;;;;;;;;;8.67;8.00;;;;;20.93;93.60;101451.75;4962414;28;46557;-77
2022/10/27 10:57:31;;;;;;;;;7.00;7.00;;;;;21.07;94.46;101465.91;4962415;28;45264;-78
2022/10/27 10:59:57;;;;;;;;;9.67;8.33;;;;;21.11;92.86;101460.88;4962667;28;45304;-78
2022/10/27 11:02:31;;;;;;;;;11.00;9.67;;;;;21.12;93.89;101465.22;4943529;28;45451;-76
2022/10/27 11:05:09;;;;;;;;;9.67;8.00;;;;;21.16;93.73;101467.25;4939926;28;48488;-78
2022/10/27 11:07:35;;;;;;;;;9.00;9.00;;;;;21.28;93.74;101474.59;4955864;28;46025;-75
2022/10/27 11:10:09;;;;;;;;;9.33;8.67;;;;;21.23;93.07;101469.88;4961657;28;45467;-74
2022/10/27 11:12:42;;;;;;;;;8.67;8.33;;;;;21.22;93.21;101462.81;4962183;28;45297;-75
2022/10/27 11:15:28;;;;;;;;;8.67;7.67;;;;;21.17;93.22;101452.69;4961995;28;45680;-78
2022/10/27 11:18:07;;;;;;;;;10.00;8.00;;;;;21.25;93.96;101451.53;4961512;28;45487;-77
2022/10/27 11:20:36;;;;;;;;;9.67;9.00;;;;;21.33;94.07;101471.22;4957863;28;45246;-76
2022/10/27 11:23:17;;;;;;;;;12.00;10.33;;;;;21.27;92.79;101443.19;4934689;28;45697;-77
2022/10/27 11:25:44;;;;;;;;;9.33;9.00;;;;;21.36;93.97;101451.81;4939416;28;45386;-77
2022/10/27 11:28:48;;;;;;;;;8.33;7.33;;;;;21.37;93.84;101454.28;4941877;28;45425;-77